sensor_id;sensor_type;location;lat;lon;timestamp;temperature;humidity
10802;DHT22;5453;50.852;7.102;2023-06-22T01:01:13;23.70;94.60
10802;DHT22;5453;50.852;7.102;2023-06-22T01:03:54;23.70;94.50
10802;DHT22;5453;50.852;7.102;2023-06-22T01:06:32;23.60;94.60
10802;DHT22;5453;50.852;7.102;2023-06-22T01:09:10;23.60;94.80
10802;DHT22;5453;50.852;7.102;2023-06-22T01:11:51;23.60;95.00
10802;DHT22;5453;50.852;7.102;2023-06-22T01:14:34;23.50;95.30
10802;DHT22;5453;50.852;7.102;2023-06-22T01:17:12;23.50;95.50
10802;DHT22;5453;50.852;7.102;2023-06-22T01:19:49;23.50;95.80
10802;DHT22;5453;50.852;7.102;2023-06-22T01:22:30;23.40;95.90
10802;DHT22;5453;50.852;7.102;2023-06-22T01:25:10;23.40;95.90
10802;DHT22;5453;50.852;7.102;2023-06-22T01:27:56;23.40;96.00
10802;DHT22;5453;50.852;7.102;2023-06-22T01:30:37;23.40;95.90
10802;DHT22;5453;50.852;7.102;2023-06-22T01:33:13;23.40;95.90
10802;DHT22;5453;50.852;7.102;2023-06-22T01:35:46;23.30;95.80
10802;DHT22;5453;50.852;7.102;2023-06-22T01:38:18;23.30;96.10
10802;DHT22;5453;50.852;7.102;2023-06-22T01:40:52;23.30;96.20
10802;DHT22;5453;50.852;7.102;2023-06-22T01:43:26;23.30;96.40
10802;DHT22;5453;50.852;7.102;2023-06-22T01:46:02;23.30;96.70
10802;DHT22;5453;50.852;7.102;2023-06-22T01:48:36;23.30;96.90
10802;DHT22;5453;50.852;7.102;2023-06-22T01:51:08;23.30;97.00
10802;DHT22;5453;50.852;7.102;2023-06-22T01:53:40;23.20;97.10
10802;DHT22;5453;50.852;7.102;2023-06-22T01:56:13;23.20;96.90
10802;DHT22;5453;50.852;7.102;2023-06-22T01:58:50;23.20;97.00
10802;DHT22;5453;50.852;7.102;2023-06-22T02:01:30;23.20;97.10
10802;DHT22;5453;50.852;7.102;2023-06-22T02:04:06;23.20;97.00
10802;DHT22;5453;50.852;7.102;2023-06-22T02:06:43;23.20;96.90
10802;DHT22;5453;50.852;7.102;2023-06-22T02:09:17;23.20;97.10
10802;DHT22;5453;50.852;7.102;2023-06-22T02:11:52;23.20;97.40
10802;DHT22;5453;50.852;7.102;2023-06-22T02:14:27;23.20;97.70
10802;DHT22;5453;50.852;7.102;2023-06-22T02:17:01;23.20;97.80
10802;DHT22;5453;50.852;7.102;2023-06-22T02:19:36;23.10;98.10
10802;DHT22;5453;50.852;7.102;2023-06-22T02:22:08;23.10;98.30
10802;DHT22;5453;50.852;7.102;2023-06-22T02:24:41;23.10;98.30
10802;DHT22;5453;50.852;7.102;2023-06-22T02:27:13;23.10;98.40
10802;DHT22;5453;50.852;7.102;2023-06-22T02:29:45;23.00;98.10
10802;DHT22;5453;50.852;7.102;2023-06-22T02:32:19;23.00;97.90
10802;DHT22;5453;50.852;7.102;2023-06-22T02:34:52;23.00;97.80
10802;DHT22;5453;50.852;7.102;2023-06-22T02:37:24;23.00;97.80
10802;DHT22;5453;50.852;7.102;2023-06-22T02:40:01;23.00;97.70
10802;DHT22;5453;50.852;7.102;2023-06-22T02:42:39;23.00;97.70
10802;DHT22;5453;50.852;7.102;2023-06-22T02:45:13;23.00;97.70
10802;DHT22;5453;50.852;7.102;2023-06-22T02:47:49;23.00;97.90
10802;DHT22;5453;50.852;7.102;2023-06-22T02:50:22;22.90;98.10
10802;DHT22;5453;50.852;7.102;2023-06-22T02:52:55;22.90;98.30
10802;DHT22;5453;50.852;7.102;2023-06-22T02:55:29;22.90;98.40
10802;DHT22;5453;50.852;7.102;2023-06-22T02:58:03;22.90;98.30
10802;DHT22;5453;50.852;7.102;2023-06-22T03:00:38;22.90;98.10
10802;DHT22;5453;50.852;7.102;2023-06-22T03:03:12;22.90;98.00
10802;DHT22;5453;50.852;7.102;2023-06-22T03:05:48;22.80;97.90
10802;DHT22;5453;50.852;7.102;2023-06-22T03:08:20;22.80;97.90
10802;DHT22;5453;50.852;7.102;2023-06-22T03:10:52;22.80;97.80
10802;DHT22;5453;50.852;7.102;2023-06-22T03:13:24;22.80;97.80
10802;DHT22;5453;50.852;7.102;2023-06-22T03:15:57;22.80;97.70
10802;DHT22;5453;50.852;7.102;2023-06-22T03:18:30;22.80;97.60
10802;DHT22;5453;50.852;7.102;2023-06-22T03:21:03;22.80;97.60
10802;DHT22;5453;50.852;7.102;2023-06-22T03:23:36;22.80;97.70
10802;DHT22;5453;50.852;7.102;2023-06-22T03:26:08;22.80;97.70
10802;DHT22;5453;50.852;7.102;2023-06-22T03:28:41;22.80;97.80
10802;DHT22;5453;50.852;7.102;2023-06-22T03:31:13;22.80;98.10
10802;DHT22;5453;50.852;7.102;2023-06-22T03:33:47;22.70;98.20
10802;DHT22;5453;50.852;7.102;2023-06-22T03:36:20;22.70;98.20
10802;DHT22;5453;50.852;7.102;2023-06-22T03:38:53;22.70;98.10
10802;DHT22;5453;50.852;7.102;2023-06-22T03:41:25;22.70;98.20
10802;DHT22;5453;50.852;7.102;2023-06-22T03:43:58;22.70;98.30
10802;DHT22;5453;50.852;7.102;2023-06-22T03:46:34;22.70;98.50
10802;DHT22;5453;50.852;7.102;2023-06-22T03:49:07;22.70;98.60
10802;DHT22;5453;50.852;7.102;2023-06-22T03:51:40;22.70;98.80
10802;DHT22;5453;50.852;7.102;2023-06-22T03:54:12;22.70;99.10
10802;DHT22;5453;50.852;7.102;2023-06-22T03:56:44;22.70;99.20
10802;DHT22;5453;50.852;7.102;2023-06-22T03:59:16;22.70;99.50
10802;DHT22;5453;50.852;7.102;2023-06-22T04:01:48;22.70;99.90
10802;DHT22;5453;50.852;7.102;2023-06-22T04:04:22;22.60;99.90
10802;DHT22;5453;50.852;7.102;2023-06-22T04:06:54;22.60;99.90
10802;DHT22;5453;50.852;7.102;2023-06-22T04:09:26;22.60;99.90
10802;DHT22;5453;50.852;7.102;2023-06-22T04:11:58;22.60;99.90
10802;DHT22;5453;50.852;7.102;2023-06-22T04:14:30;22.70;99.90
10802;DHT22;5453;50.852;7.102;2023-06-22T04:17:02;22.70;99.90
10802;DHT22;5453;50.852;7.102;2023-06-22T04:19:36;22.70;99.90
10802;DHT22;5453;50.852;7.102;2023-06-22T04:22:08;22.70;99.90
10802;DHT22;5453;50.852;7.102;2023-06-22T04:24:40;22.70;99.90
10802;DHT22;5453;50.852;7.102;2023-06-22T04:27:12;22.70;99.90
10802;DHT22;5453;50.852;7.102;2023-06-22T04:29:45;22.70;99.90
10802;DHT22;5453;50.852;7.102;2023-06-22T04:32:19;22.70;99.90
10802;DHT22;5453;50.852;7.102;2023-06-22T04:34:52;22.60;99.90
10802;DHT22;5453;50.852;7.102;2023-06-22T04:37:24;22.60;99.90
10802;DHT22;5453;50.852;7.102;2023-06-22T04:39:56;22.50;99.90
10802;DHT22;5453;50.852;7.102;2023-06-22T04:42:28;22.50;99.90
10802;DHT22;5453;50.852;7.102;2023-06-22T04:45:01;22.50;99.90
10802;DHT22;5453;50.852;7.102;2023-06-22T04:47:33;22.50;99.90
10802;DHT22;5453;50.852;7.102;2023-06-22T04:50:07;22.50;99.90
10802;DHT22;5453;50.852;7.102;2023-06-22T04:52:39;22.40;99.90
10802;DHT22;5453;50.852;7.102;2023-06-22T04:55:11;22.40;99.90
10802;DHT22;5453;50.852;7.102;2023-06-22T04:57:43;22.50;99.90
10802;DHT22;5453;50.852;7.102;2023-06-22T05:00:19;22.50;99.90
10802;DHT22;5453;50.852;7.102;2023-06-22T05:02:53;22.60;99.90
10802;DHT22;5453;50.852;7.102;2023-06-22T05:05:29;22.60;99.90
10802;DHT22;5453;50.852;7.102;2023-06-22T05:08:01;22.60;99.90
10802;DHT22;5453;50.852;7.102;2023-06-22T05:10:33;22.60;99.90
10802;DHT22;5453;50.852;7.102;2023-06-22T05:13:06;22.60;99.90
10802;DHT22;5453;50.852;7.102;2023-06-22T05:15:38;22.70;99.90
10802;DHT22;5453;50.852;7.102;2023-06-22T05:18:10;22.60;99.90
10802;DHT22;5453;50.852;7.102;2023-06-22T05:20:44;22.70;99.90
10802;DHT22;5453;50.852;7.102;2023-06-22T05:23:16;22.70;99.90
10802;DHT22;5453;50.852;7.102;2023-06-22T05:25:48;22.70;99.90
10802;DHT22;5453;50.852;7.102;2023-06-22T05:28:20;22.80;99.90
10802;DHT22;5453;50.852;7.102;2023-06-22T05:30:53;22.80;99.90
10802;DHT22;5453;50.852;7.102;2023-06-22T05:33:26;22.90;99.90
10802;DHT22;5453;50.852;7.102;2023-06-22T05:35:59;23.00;99.90
10802;DHT22;5453;50.852;7.102;2023-06-22T05:38:31;23.10;99.90
10802;DHT22;5453;50.852;7.102;2023-06-22T05:41:03;23.30;99.90
10802;DHT22;5453;50.852;7.102;2023-06-22T05:43:35;23.40;99.90
10802;DHT22;5453;50.852;7.102;2023-06-22T05:46:07;23.60;99.90
10802;DHT22;5453;50.852;7.102;2023-06-22T05:48:39;23.70;99.90
10802;DHT22;5453;50.852;7.102;2023-06-22T05:51:13;23.80;99.90
10802;DHT22;5453;50.852;7.102;2023-06-22T05:53:45;24.00;99.90
10802;DHT22;5453;50.852;7.102;2023-06-22T05:58:52;24.30;99.90
10802;DHT22;5453;50.852;7.102;2023-06-22T06:01:24;24.30;99.90
10802;DHT22;5453;50.852;7.102;2023-06-22T06:03:56;24.40;99.90
10802;DHT22;5453;50.852;7.102;2023-06-22T06:06:29;24.40;99.90
10802;DHT22;5453;50.852;7.102;2023-06-22T06:10:20;24.40;99.90
10802;DHT22;5453;50.852;7.102;2023-06-22T06:12:52;24.50;99.90
10802;DHT22;5453;50.852;7.102;2023-06-22T06:15:24;24.40;99.90
10802;DHT22;5453;50.852;7.102;2023-06-22T06:17:57;24.40;99.90
10802;DHT22;5453;50.852;7.102;2023-06-22T06:20:29;24.40;99.90
10802;DHT22;5453;50.852;7.102;2023-06-22T06:23:06;24.30;99.90
10802;DHT22;5453;50.852;7.102;2023-06-22T06:25:40;24.30;99.90
10802;DHT22;5453;50.852;7.102;2023-06-22T06:28:12;24.30;99.90
10802;DHT22;5453;50.852;7.102;2023-06-22T06:30:45;24.30;99.90
10802;DHT22;5453;50.852;7.102;2023-06-22T06:33:21;24.30;99.90
10802;DHT22;5453;50.852;7.102;2023-06-22T06:35:54;24.30;99.90
10802;DHT22;5453;50.852;7.102;2023-06-22T06:38:27;24.30;99.90
10802;DHT22;5453;50.852;7.102;2023-06-22T06:41:04;24.20;99.90
10802;DHT22;5453;50.852;7.102;2023-06-22T06:43:36;24.20;99.90
10802;DHT22;5453;50.852;7.102;2023-06-22T06:46:09;24.20;99.90
10802;DHT22;5453;50.852;7.102;2023-06-22T06:48:41;24.20;99.90
10802;DHT22;5453;50.852;7.102;2023-06-22T06:51:13;24.20;99.90
10802;DHT22;5453;50.852;7.102;2023-06-22T06:53:46;24.20;99.90
10802;DHT22;5453;50.852;7.102;2023-06-22T06:56:19;24.20;99.90
10802;DHT22;5453;50.852;7.102;2023-06-22T06:58:52;24.30;99.90
10802;DHT22;5453;50.852;7.102;2023-06-22T07:01:25;24.30;99.90
10802;DHT22;5453;50.852;7.102;2023-06-22T07:03:57;24.40;99.90
10802;DHT22;5453;50.852;7.102;2023-06-22T07:06:29;24.50;99.90
10802;DHT22;5453;50.852;7.102;2023-06-22T07:09:03;24.60;99.90
10802;DHT22;5453;50.852;7.102;2023-06-22T07:11:37;24.70;99.90
10802;DHT22;5453;50.852;7.102;2023-06-22T07:14:09;24.80;99.90
10802;DHT22;5453;50.852;7.102;2023-06-22T07:16:42;25.00;99.90
10802;DHT22;5453;50.852;7.102;2023-06-22T07:19:24;25.30;99.90
10802;DHT22;5453;50.852;7.102;2023-06-22T07:21:57;25.50;99.90
10802;DHT22;5453;50.852;7.102;2023-06-22T07:24:30;25.50;99.90
10802;DHT22;5453;50.852;7.102;2023-06-22T07:27:08;25.60;99.90
10802;DHT22;5453;50.852;7.102;2023-06-22T07:29:42;25.60;99.90
10802;DHT22;5453;50.852;7.102;2023-06-22T07:32:14;25.50;99.90
10802;DHT22;5453;50.852;7.102;2023-06-22T07:34:46;25.50;99.90
10802;DHT22;5453;50.852;7.102;2023-06-22T07:37:22;25.50;99.90
10802;DHT22;5453;50.852;7.102;2023-06-22T07:39:54;25.40;99.90
10802;DHT22;5453;50.852;7.102;2023-06-22T07:42:30;25.40;99.90
10802;DHT22;5453;50.852;7.102;2023-06-22T07:45:07;25.50;99.90
10802;DHT22;5453;50.852;7.102;2023-06-22T07:47:40;25.70;99.90
10802;DHT22;5453;50.852;7.102;2023-06-22T07:50:12;25.90;99.40
10802;DHT22;5453;50.852;7.102;2023-06-22T07:52:45;26.00;99.20
10802;DHT22;5453;50.852;7.102;2023-06-22T07:55:18;26.10;99.00
10802;DHT22;5453;50.852;7.102;2023-06-22T07:57:52;26.20;98.60
10802;DHT22;5453;50.852;7.102;2023-06-22T08:00:25;26.40;98.60
10802;DHT22;5453;50.852;7.102;2023-06-22T08:02:58;26.50;98.30
10802;DHT22;5453;50.852;7.102;2023-06-22T08:05:30;26.60;98.30
10802;DHT22;5453;50.852;7.102;2023-06-22T08:08:03;26.80;98.20
10802;DHT22;5453;50.852;7.102;2023-06-22T08:10:35;27.20;98.00
10802;DHT22;5453;50.852;7.102;2023-06-22T08:13:10;27.40;97.50
10802;DHT22;5453;50.852;7.102;2023-06-22T08:15:42;27.70;97.30
10802;DHT22;5453;50.852;7.102;2023-06-22T08:18:15;28.10;96.50
10802;DHT22;5453;50.852;7.102;2023-06-22T08:20:48;28.50;95.90
10802;DHT22;5453;50.852;7.102;2023-06-22T08:23:24;29.00;95.10
10802;DHT22;5453;50.852;7.102;2023-06-22T08:25:56;29.40;94.40
10802;DHT22;5453;50.852;7.102;2023-06-22T08:28:30;29.70;93.60
10802;DHT22;5453;50.852;7.102;2023-06-22T08:31:02;30.10;92.80
10802;DHT22;5453;50.852;7.102;2023-06-22T08:33:35;30.40;91.80
10802;DHT22;5453;50.852;7.102;2023-06-22T08:36:07;30.70;91.50
10802;DHT22;5453;50.852;7.102;2023-06-22T08:38:41;31.00;91.00
10802;DHT22;5453;50.852;7.102;2023-06-22T08:41:17;31.40;90.40
10802;DHT22;5453;50.852;7.102;2023-06-22T08:43:51;32.00;89.20
10802;DHT22;5453;50.852;7.102;2023-06-22T08:46:24;32.60;86.90
10802;DHT22;5453;50.852;7.102;2023-06-22T08:49:00;32.80;83.70
10802;DHT22;5453;50.852;7.102;2023-06-22T08:51:33;33.10;82.30
10802;DHT22;5453;50.852;7.102;2023-06-22T08:54:06;33.10;81.50
10802;DHT22;5453;50.852;7.102;2023-06-22T08:56:38;32.60;80.30
10802;DHT22;5453;50.852;7.102;2023-06-22T08:59:15;32.10;81.40
10802;DHT22;5453;50.852;7.102;2023-06-22T09:01:47;31.60;82.40
10802;DHT22;5453;50.852;7.102;2023-06-22T09:04:20;31.20;83.70
10802;DHT22;5453;50.852;7.102;2023-06-22T09:06:52;30.80;84.90
10802;DHT22;5453;50.852;7.102;2023-06-22T09:09:25;30.50;86.30
10802;DHT22;5453;50.852;7.102;2023-06-22T09:11:57;30.30;87.10
10802;DHT22;5453;50.852;7.102;2023-06-22T09:14:31;30.10;87.80
10802;DHT22;5453;50.852;7.102;2023-06-22T09:17:03;30.00;88.60
10802;DHT22;5453;50.852;7.102;2023-06-22T09:19:40;29.80;88.60
10802;DHT22;5453;50.852;7.102;2023-06-22T09:22:12;29.60;89.70
10802;DHT22;5453;50.852;7.102;2023-06-22T09:24:45;29.40;89.40
10802;DHT22;5453;50.852;7.102;2023-06-22T09:27:20;29.30;89.90
10802;DHT22;5453;50.852;7.102;2023-06-22T09:29:54;29.10;90.70
10802;DHT22;5453;50.852;7.102;2023-06-22T09:32:29;29.00;90.70
10802;DHT22;5453;50.852;7.102;2023-06-22T09:35:04;29.00;91.00
10802;DHT22;5453;50.852;7.102;2023-06-22T09:37:40;29.00;91.40
10802;DHT22;5453;50.852;7.102;2023-06-22T09:40:13;29.00;91.00
10802;DHT22;5453;50.852;7.102;2023-06-22T09:42:47;29.00;91.20
10802;DHT22;5453;50.852;7.102;2023-06-22T09:45:24;29.10;91.20
10802;DHT22;5453;50.852;7.102;2023-06-22T09:47:56;29.20;91.40
10802;DHT22;5453;50.852;7.102;2023-06-22T09:50:29;29.20;91.10
10802;DHT22;5453;50.852;7.102;2023-06-22T09:53:01;29.30;90.90
10802;DHT22;5453;50.852;7.102;2023-06-22T09:55:33;29.20;90.50
10802;DHT22;5453;50.852;7.102;2023-06-22T09:58:06;29.10;90.90
10802;DHT22;5453;50.852;7.102;2023-06-22T10:00:40;28.90;90.90
10802;DHT22;5453;50.852;7.102;2023-06-22T10:03:13;28.70;91.10
10802;DHT22;5453;50.852;7.102;2023-06-22T10:05:45;28.50;90.90
10802;DHT22;5453;50.852;7.102;2023-06-22T10:08:18;28.40;91.30
10802;DHT22;5453;50.852;7.102;2023-06-22T10:10:51;28.30;91.70
10802;DHT22;5453;50.852;7.102;2023-06-22T10:13:26;28.20;91.60
10802;DHT22;5453;50.852;7.102;2023-06-22T10:16:00;28.10;91.90
10802;DHT22;5453;50.852;7.102;2023-06-22T10:18:32;28.00;91.90
10802;DHT22;5453;50.852;7.102;2023-06-22T10:21:04;27.90;92.30
10802;DHT22;5453;50.852;7.102;2023-06-22T10:23:43;27.80;92.20
10802;DHT22;5453;50.852;7.102;2023-06-22T10:26:15;27.70;92.60
10802;DHT22;5453;50.852;7.102;2023-06-22T10:28:48;27.70;93.50
10802;DHT22;5453;50.852;7.102;2023-06-22T10:31:22;27.60;94.40
10802;DHT22;5453;50.852;7.102;2023-06-22T10:33:54;27.50;95.40
10802;DHT22;5453;50.852;7.102;2023-06-22T10:36:27;27.40;96.20
10802;DHT22;5453;50.852;7.102;2023-06-22T10:39:00;27.40;97.70
10802;DHT22;5453;50.852;7.102;2023-06-22T10:41:36;27.30;98.70
10802;DHT22;5453;50.852;7.102;2023-06-22T10:44:09;27.20;99.90
10802;DHT22;5453;50.852;7.102;2023-06-22T10:46:43;27.10;99.90
10802;DHT22;5453;50.852;7.102;2023-06-22T10:49:15;26.90;99.90
10802;DHT22;5453;50.852;7.102;2023-06-22T10:51:50;26.80;99.90
10802;DHT22;5453;50.852;7.102;2023-06-22T10:54:23;26.70;99.90
10802;DHT22;5453;50.852;7.102;2023-06-22T10:56:55;26.60;99.90
10802;DHT22;5453;50.852;7.102;2023-06-22T10:59:28;26.40;99.90
10802;DHT22;5453;50.852;7.102;2023-06-22T11:02:01;26.30;99.90
10802;DHT22;5453;50.852;7.102;2023-06-22T11:04:34;26.20;99.90
10802;DHT22;5453;50.852;7.102;2023-06-22T11:07:06;26.10;99.90
10802;DHT22;5453;50.852;7.102;2023-06-22T11:09:39;26.10;99.90
10802;DHT22;5453;50.852;7.102;2023-06-22T11:12:12;26.00;99.90
10802;DHT22;5453;50.852;7.102;2023-06-22T11:14:44;25.80;99.90
10802;DHT22;5453;50.852;7.102;2023-06-22T11:17:18;25.70;99.90
10802;DHT22;5453;50.852;7.102;2023-06-22T11:19:50;25.50;99.90
10802;DHT22;5453;50.852;7.102;2023-06-22T11:22:23;25.30;99.90
10802;DHT22;5453;50.852;7.102;2023-06-22T11:24:55;25.20;99.90
10802;DHT22;5453;50.852;7.102;2023-06-22T11:27:31;25.20;99.90
10802;DHT22;5453;50.852;7.102;2023-06-22T11:30:04;25.20;99.90
10802;DHT22;5453;50.852;7.102;2023-06-22T11:32:38;25.20;99.90
10802;DHT22;5453;50.852;7.102;2023-06-22T11:35:23;25.20;99.90
10802;DHT22;5453;50.852;7.102;2023-06-22T11:37:59;25.20;99.90
10802;DHT22;5453;50.852;7.102;2023-06-22T11:40:31;25.30;99.90
10802;DHT22;5453;50.852;7.102;2023-06-22T11:43:03;25.30;99.90
10802;DHT22;5453;50.852;7.102;2023-06-22T11:45:36;25.40;99.90
10802;DHT22;5453;50.852;7.102;2023-06-22T11:48:09;25.40;99.90
10802;DHT22;5453;50.852;7.102;2023-06-22T11:50:42;25.50;99.90
10802;DHT22;5453;50.852;7.102;2023-06-22T11:53:14;25.50;99.90
10802;DHT22;5453;50.852;7.102;2023-06-22T11:55:48;25.60;99.90
10802;DHT22;5453;50.852;7.102;2023-06-22T11:58:20;25.60;99.90
10802;DHT22;5453;50.852;7.102;2023-06-22T12:00:54;25.60;99.90
10802;DHT22;5453;50.852;7.102;2023-06-22T12:03:28;25.80;99.90
10802;DHT22;5453;50.852;7.102;2023-06-22T12:06:00;25.90;99.90
10802;DHT22;5453;50.852;7.102;2023-06-22T12:08:33;25.90;99.90
10802;DHT22;5453;50.852;7.102;2023-06-22T12:11:05;25.70;99.90
10802;DHT22;5453;50.852;7.102;2023-06-22T12:13:37;25.60;99.90
10802;DHT22;5453;50.852;7.102;2023-06-22T12:16:10;25.50;99.90
10802;DHT22;5453;50.852;7.102;2023-06-22T12:18:44;25.50;99.90
10802;DHT22;5453;50.852;7.102;2023-06-22T12:21:16;25.50;99.90
10802;DHT22;5453;50.852;7.102;2023-06-22T12:23:52;25.60;99.90
10802;DHT22;5453;50.852;7.102;2023-06-22T12:26:24;25.50;99.90
10802;DHT22;5453;50.852;7.102;2023-06-22T12:28:56;25.50;99.90
10802;DHT22;5453;50.852;7.102;2023-06-22T12:31:29;25.50;99.90
10802;DHT22;5453;50.852;7.102;2023-06-22T12:34:06;25.40;99.90
10802;DHT22;5453;50.852;7.102;2023-06-22T12:36:38;25.40;99.90
10802;DHT22;5453;50.852;7.102;2023-06-22T12:39:11;25.40;99.90
10802;DHT22;5453;50.852;7.102;2023-06-22T12:41:46;25.50;99.90
10802;DHT22;5453;50.852;7.102;2023-06-22T12:44:18;25.70;99.90
10802;DHT22;5453;50.852;7.102;2023-06-22T12:46:51;26.00;99.90
10802;DHT22;5453;50.852;7.102;2023-06-22T12:49:24;26.10;99.90
10802;DHT22;5453;50.852;7.102;2023-06-22T12:51:57;26.30;99.90
10802;DHT22;5453;50.852;7.102;2023-06-22T12:54:29;26.30;99.90
10802;DHT22;5453;50.852;7.102;2023-06-22T12:57:02;26.40;99.90
10802;DHT22;5453;50.852;7.102;2023-06-22T12:59:34;26.50;99.90
10802;DHT22;5453;50.852;7.102;2023-06-22T13:02:07;26.60;99.90
10802;DHT22;5453;50.852;7.102;2023-06-22T13:04:41;26.70;99.90
10802;DHT22;5453;50.852;7.102;2023-06-22T13:07:14;26.70;99.90
10802;DHT22;5453;50.852;7.102;2023-06-22T13:09:46;26.70;99.90
10802;DHT22;5453;50.852;7.102;2023-06-22T13:12:22;26.70;99.90
10802;DHT22;5453;50.852;7.102;2023-06-22T13:14:54;26.80;99.90
10802;DHT22;5453;50.852;7.102;2023-06-22T13:17:27;27.00;99.90
10802;DHT22;5453;50.852;7.102;2023-06-22T13:20:01;27.10;99.90
10802;DHT22;5453;50.852;7.102;2023-06-22T13:22:35;27.10;99.90
10802;DHT22;5453;50.852;7.102;2023-06-22T13:25:10;27.20;99.90
10802;DHT22;5453;50.852;7.102;2023-06-22T13:27:43;27.20;99.90
10802;DHT22;5453;50.852;7.102;2023-06-22T13:30:16;27.30;99.90
10802;DHT22;5453;50.852;7.102;2023-06-22T13:32:48;27.40;99.90
10802;DHT22;5453;50.852;7.102;2023-06-22T13:35:22;27.40;99.90
10802;DHT22;5453;50.852;7.102;2023-06-22T13:37:54;27.50;99.90
10802;DHT22;5453;50.852;7.102;2023-06-22T13:40:27;27.40;99.90
10802;DHT22;5453;50.852;7.102;2023-06-22T13:42:59;27.50;99.90
10802;DHT22;5453;50.852;7.102;2023-06-22T13:45:32;27.50;99.90
10802;DHT22;5453;50.852;7.102;2023-06-22T13:48:07;27.50;99.90
10802;DHT22;5453;50.852;7.102;2023-06-22T13:50:41;27.50;99.90
10802;DHT22;5453;50.852;7.102;2023-06-22T13:53:13;27.50;99.90
10802;DHT22;5453;50.852;7.102;2023-06-22T13:55:49;27.50;99.90
10802;DHT22;5453;50.852;7.102;2023-06-22T13:58:22;27.40;99.90
10802;DHT22;5453;50.852;7.102;2023-06-22T14:00:54;27.40;99.90
10802;DHT22;5453;50.852;7.102;2023-06-22T14:03:26;27.40;99.90
10802;DHT22;5453;50.852;7.102;2023-06-22T14:06:00;27.50;99.90
10802;DHT22;5453;50.852;7.102;2023-06-22T14:08:32;27.50;99.90
10802;DHT22;5453;50.852;7.102;2023-06-22T14:11:05;27.50;99.90
10802;DHT22;5453;50.852;7.102;2023-06-22T14:13:37;27.50;99.90
10802;DHT22;5453;50.852;7.102;2023-06-22T14:16:13;27.40;99.90
10802;DHT22;5453;50.852;7.102;2023-06-22T14:18:45;27.30;99.90
10802;DHT22;5453;50.852;7.102;2023-06-22T14:21:19;27.20;99.90
10802;DHT22;5453;50.852;7.102;2023-06-22T14:23:51;27.10;99.90
10802;DHT22;5453;50.852;7.102;2023-06-22T14:26:24;27.10;99.90
10802;DHT22;5453;50.852;7.102;2023-06-22T14:28:56;27.00;99.90
10802;DHT22;5453;50.852;7.102;2023-06-22T14:31:29;27.00;99.90
10802;DHT22;5453;50.852;7.102;2023-06-22T14:34:04;26.90;99.90
10802;DHT22;5453;50.852;7.102;2023-06-22T14:36:38;26.80;99.90
10802;DHT22;5453;50.852;7.102;2023-06-22T14:39:10;26.70;99.90
10802;DHT22;5453;50.852;7.102;2023-06-22T14:41:43;26.70;99.90
10802;DHT22;5453;50.852;7.102;2023-06-22T14:44:18;26.60;99.90
10802;DHT22;5453;50.852;7.102;2023-06-22T14:46:50;26.50;99.90
10802;DHT22;5453;50.852;7.102;2023-06-22T14:49:23;26.50;99.90
10802;DHT22;5453;50.852;7.102;2023-06-22T14:51:57;26.40;99.90
10802;DHT22;5453;50.852;7.102;2023-06-22T14:54:29;26.40;99.90
10802;DHT22;5453;50.852;7.102;2023-06-22T14:57:01;26.30;99.90
10802;DHT22;5453;50.852;7.102;2023-06-22T14:59:34;26.20;99.90
10802;DHT22;5453;50.852;7.102;2023-06-22T15:02:09;26.20;99.90
10802;DHT22;5453;50.852;7.102;2023-06-22T15:04:41;26.10;99.90
10802;DHT22;5453;50.852;7.102;2023-06-22T15:07:15;26.10;99.90
10802;DHT22;5453;50.852;7.102;2023-06-22T15:09:49;25.90;99.90
10802;DHT22;5453;50.852;7.102;2023-06-22T15:12:22;25.90;99.90
10802;DHT22;5453;50.852;7.102;2023-06-22T15:14:54;25.80;99.90
10802;DHT22;5453;50.852;7.102;2023-06-22T15:17:26;25.70;99.90
10802;DHT22;5453;50.852;7.102;2023-06-22T15:20:00;25.40;99.90
10802;DHT22;5453;50.852;7.102;2023-06-22T15:22:33;25.00;99.90
10802;DHT22;5453;50.852;7.102;2023-06-22T15:25:06;24.70;99.90
10802;DHT22;5453;50.852;7.102;2023-06-22T15:27:39;24.60;99.90
10802;DHT22;5453;50.852;7.102;2023-06-22T15:30:12;24.50;99.90
10802;DHT22;5453;50.852;7.102;2023-06-22T15:32:45;24.40;99.90
10802;DHT22;5453;50.852;7.102;2023-06-22T15:35:18;24.30;99.90
10802;DHT22;5453;50.852;7.102;2023-06-22T15:37:52;24.20;99.90
10802;DHT22;5453;50.852;7.102;2023-06-22T15:40:27;24.10;99.90
10802;DHT22;5453;50.852;7.102;2023-06-22T15:43:00;24.00;99.90
10802;DHT22;5453;50.852;7.102;2023-06-22T15:45:32;24.00;99.90
10802;DHT22;5453;50.852;7.102;2023-06-22T15:48:08;24.00;99.90
10802;DHT22;5453;50.852;7.102;2023-06-22T15:50:40;24.00;99.90
10802;DHT22;5453;50.852;7.102;2023-06-22T15:53:14;23.90;99.90
10802;DHT22;5453;50.852;7.102;2023-06-22T15:55:46;23.90;99.90
10802;DHT22;5453;50.852;7.102;2023-06-22T15:58:22;23.90;99.90
10802;DHT22;5453;50.852;7.102;2023-06-22T16:00:54;24.00;99.90
10802;DHT22;5453;50.852;7.102;2023-06-22T16:03:27;23.90;99.90
10802;DHT22;5453;50.852;7.102;2023-06-22T16:05:59;23.90;99.90
10802;DHT22;5453;50.852;7.102;2023-06-22T16:08:33;24.00;99.90
10802;DHT22;5453;50.852;7.102;2023-06-22T16:11:05;23.90;99.90
10802;DHT22;5453;50.852;7.102;2023-06-22T16:13:38;23.90;99.90
10802;DHT22;5453;50.852;7.102;2023-06-22T16:16:10;23.80;99.90
10802;DHT22;5453;50.852;7.102;2023-06-22T16:18:43;23.70;99.90
10802;DHT22;5453;50.852;7.102;2023-06-22T16:21:16;23.60;99.90
10802;DHT22;5453;50.852;7.102;2023-06-22T16:23:49;23.60;99.90
10802;DHT22;5453;50.852;7.102;2023-06-22T16:26:22;23.50;99.90
10802;DHT22;5453;50.852;7.102;2023-06-22T16:28:54;23.50;99.90
10802;DHT22;5453;50.852;7.102;2023-06-22T16:31:27;23.50;99.90
10802;DHT22;5453;50.852;7.102;2023-06-22T16:33:59;23.50;99.90
10802;DHT22;5453;50.852;7.102;2023-06-22T16:36:31;23.40;99.90
10802;DHT22;5453;50.852;7.102;2023-06-22T16:39:05;23.40;99.90
10802;DHT22;5453;50.852;7.102;2023-06-22T16:41:37;23.40;99.90
10802;DHT22;5453;50.852;7.102;2023-06-22T16:44:10;23.40;99.90
10802;DHT22;5453;50.852;7.102;2023-06-22T16:46:43;23.50;99.90
10802;DHT22;5453;50.852;7.102;2023-06-22T16:49:15;23.60;99.90
10802;DHT22;5453;50.852;7.102;2023-06-22T16:51:48;23.70;99.90
10802;DHT22;5453;50.852;7.102;2023-06-22T16:54:25;23.80;99.90
10802;DHT22;5453;50.852;7.102;2023-06-22T16:56:59;23.90;99.90
10802;DHT22;5453;50.852;7.102;2023-06-22T16:59:33;23.90;99.90
10802;DHT22;5453;50.852;7.102;2023-06-22T17:02:05;24.00;99.90
10802;DHT22;5453;50.852;7.102;2023-06-22T17:04:48;24.10;99.90
10802;DHT22;5453;50.852;7.102;2023-06-22T17:07:21;24.10;99.90
10802;DHT22;5453;50.852;7.102;2023-06-22T17:09:57;24.10;99.90
10802;DHT22;5453;50.852;7.102;2023-06-22T17:12:32;24.10;99.90
10802;DHT22;5453;50.852;7.102;2023-06-22T17:15:07;24.20;99.90
10802;DHT22;5453;50.852;7.102;2023-06-22T17:17:41;24.30;99.90
10802;DHT22;5453;50.852;7.102;2023-06-22T17:20:17;24.30;99.90
10802;DHT22;5453;50.852;7.102;2023-06-22T17:22:50;24.30;99.90
10802;DHT22;5453;50.852;7.102;2023-06-22T17:25:27;24.30;99.90
10802;DHT22;5453;50.852;7.102;2023-06-22T17:28:01;24.40;99.90